createdAt,value
2018-08-20T00:01:49.001Z,100426.48
2018-08-20T00:04:17.266Z,100419.41
2018-08-20T00:06:57.677Z,100427.70
2018-08-20T00:09:38.114Z,100419.17
2018-08-20T00:12:08.391Z,100420.07
2018-08-20T00:14:36.835Z,100416.84
2018-08-20T00:17:05.332Z,100421.73
2018-08-20T00:19:33.676Z,100426.14
2018-08-20T00:22:01.864Z,100423.39
2018-08-20T00:24:29.964Z,100427.17
2018-08-20T00:26:59.596Z,100427.52
2018-08-20T00:29:27.885Z,100425.51
2018-08-20T00:31:56.323Z,100430.52
2018-08-20T00:34:24.494Z,100424.05
2018-08-20T00:36:52.708Z,100421.89
2018-08-20T00:39:21.012Z,100426.11
2018-08-20T00:41:49.606Z,100422.29
2018-08-20T00:44:17.770Z,100427.58
2018-08-20T00:46:46.391Z,100431.16
2018-08-20T00:49:15.854Z,100431.16
2018-08-20T00:51:44.426Z,100430.67
2018-08-20T00:54:12.684Z,100435.82
2018-08-20T00:56:41.196Z,100431.53
2018-08-20T00:59:09.699Z,100429.59
2018-08-20T01:01:37.828Z,100434.53
2018-08-20T01:04:06.141Z,100431.25
2018-08-20T01:06:34.319Z,100438.11
2018-08-20T01:09:03.170Z,100437.28
2018-08-20T01:11:31.778Z,100440.34
2018-08-20T01:14:00.137Z,100440.94
2018-08-20T01:16:28.333Z,100446.97
2018-08-20T01:18:56.721Z,100453.00
2018-08-20T01:21:25.020Z,100454.70
2018-08-20T01:23:53.349Z,100453.40
2018-08-20T01:26:21.473Z,100455.28
2018-08-20T01:28:49.641Z,100454.73
2018-08-20T01:31:17.997Z,100454.59
2018-08-20T01:33:46.363Z,100452.95
2018-08-20T01:36:15.299Z,100448.37
2018-08-20T01:38:43.679Z,100450.25
2018-08-20T01:41:11.857Z,100450.50
2018-08-20T01:43:40.123Z,100457.64
2018-08-20T01:46:08.802Z,100455.76
2018-08-20T01:48:37.029Z,100461.05
2018-08-20T01:51:05.201Z,100458.05
2018-08-20T01:53:33.477Z,100458.81
2018-08-20T01:56:01.821Z,100457.73
2018-08-20T01:58:30.136Z,100458.84
2018-08-20T02:00:58.309Z,100459.95
2018-08-20T02:03:26.859Z,100462.18
2018-08-20T02:05:55.035Z,100456.98
2018-08-20T02:08:23.129Z,100460.55
2018-08-20T02:10:51.652Z,100460.83
2018-08-20T02:13:20.758Z,100458.09
2018-08-20T02:15:49.317Z,100453.98
2018-08-20T02:18:17.627Z,100453.97
2018-08-20T02:20:45.777Z,100450.97
2018-08-20T02:23:14.421Z,100452.91
2018-08-20T02:25:42.563Z,100444.73
2018-08-20T02:28:10.761Z,100441.44
2018-08-20T02:30:39.026Z,100439.02
2018-08-20T02:33:07.633Z,100439.02
2018-08-20T02:35:36.125Z,100434.91
2018-08-20T02:38:04.848Z,100432.73
2018-08-20T02:40:33.706Z,100435.20
2018-08-20T02:43:02.012Z,100424.77
2018-08-20T02:45:30.632Z,100428.87
2018-08-20T02:47:59.004Z,100428.88
2018-08-20T02:50:27.162Z,100433.02
2018-08-20T02:52:55.484Z,100433.87
2018-08-20T02:55:23.894Z,100429.20
2018-08-20T02:57:52.012Z,100428.38
2018-08-20T03:00:20.630Z,100430.05
2018-08-20T03:02:48.936Z,100418.00
2018-08-20T03:05:18.121Z,100428.67
2018-08-20T03:07:46.306Z,100425.69
2018-08-20T03:10:14.772Z,100430.60
2018-08-20T03:12:43.329Z,100425.12
2018-08-20T03:15:11.716Z,100427.87
2018-08-20T03:17:40.425Z,100424.33
2018-08-20T03:20:08.877Z,100426.52
2018-08-20T03:22:37.046Z,100420.22
2018-08-20T03:25:06.115Z,100421.35
2018-08-20T03:27:34.872Z,100431.76
2018-08-20T03:30:04.553Z,100429.03
2018-08-20T03:32:32.813Z,100429.84
2018-08-20T03:35:01.292Z,100430.89
2018-08-20T03:37:33.357Z,100428.45
2018-08-20T03:40:02.169Z,100430.37
2018-08-20T03:42:30.407Z,100429.53
2018-08-20T03:44:58.839Z,100434.73
2018-08-20T03:47:27.237Z,100430.36
2018-08-20T03:49:55.672Z,100432.59
2018-08-20T03:52:24.777Z,100434.22
2018-08-20T03:54:53.705Z,100439.97
2018-08-20T03:57:22.777Z,100434.22
2018-08-20T03:59:50.990Z,100438.84
2018-08-20T04:02:19.067Z,100439.41
2018-08-20T04:04:47.240Z,100435.30
2018-08-20T04:07:15.344Z,100446.23
2018-08-20T04:09:43.489Z,100445.68
2018-08-20T04:12:11.922Z,100444.31
2018-08-20T04:14:40.068Z,100443.52
2018-08-20T04:17:08.461Z,100440.50
2018-08-20T04:19:36.613Z,100445.69
2018-08-20T04:22:04.804Z,100443.79
2018-08-20T04:24:33.204Z,100441.85
2018-08-20T04:27:01.818Z,100443.77
2018-08-20T04:29:30.102Z,100448.96
2018-08-20T04:31:58.512Z,100445.69
2018-08-20T04:34:27.108Z,100439.67
2018-08-20T04:36:55.224Z,100450.05
2018-08-20T04:39:23.345Z,100441.86
2018-08-20T04:41:51.640Z,100431.19
2018-08-20T04:44:19.724Z,100443.22
2018-08-20T04:46:47.890Z,100436.66
2018-08-20T04:49:16.025Z,100444.31
2018-08-20T04:51:44.207Z,100445.69
2018-08-20T04:54:12.526Z,100447.62
2018-08-20T04:56:40.902Z,100452.00
2018-08-20T04:59:08.970Z,100453.91
2018-08-20T05:01:37.290Z,100451.70
2018-08-20T05:04:05.768Z,100448.12
2018-08-20T05:06:34.032Z,100453.32
2018-08-20T05:09:02.331Z,100455.51
2018-08-20T05:11:30.641Z,100457.42
2018-08-20T05:13:58.849Z,100453.30
2018-08-20T05:16:26.999Z,100458.74
2018-08-20T05:18:55.244Z,100460.38
2018-08-20T05:21:23.450Z,100462.01
2018-08-20T05:23:51.585Z,100455.38
2018-08-20T05:26:20.369Z,100460.56
2018-08-20T05:28:48.555Z,100461.11
2018-08-20T05:31:16.692Z,100464.92
2018-08-20T05:33:44.858Z,100472.03
2018-08-20T05:36:13.093Z,100474.75
2018-08-20T05:38:41.158Z,100479.69
2018-08-20T05:41:09.375Z,100480.66
2018-08-20T05:43:37.502Z,100480.86
2018-08-20T05:46:06.085Z,100490.28
2018-08-20T05:48:34.344Z,100493.92
2018-08-20T05:51:02.501Z,100489.18
2018-08-20T05:53:30.826Z,100497.33
2018-08-20T05:55:59.041Z,100500.95
2018-08-20T05:58:27.235Z,100496.16
2018-08-20T06:00:55.662Z,100494.48
2018-08-20T06:03:23.921Z,100501.73
2018-08-20T06:05:52.321Z,100505.71
2018-08-20T06:08:20.464Z,100508.79
2018-08-20T06:10:48.797Z,100513.87
2018-08-20T06:13:17.064Z,100515.77
2018-08-20T06:15:45.252Z,100521.30
2018-08-20T06:18:13.468Z,100519.00
2018-08-20T06:20:41.750Z,100521.10
2018-08-20T06:23:10.110Z,100521.57
2018-08-20T06:25:39.000Z,100528.05
2018-08-20T06:28:07.254Z,100531.67
2018-08-20T06:30:35.501Z,100527.49
2018-08-20T06:33:04.444Z,100523.31
2018-08-20T06:35:32.572Z,100521.66
2018-08-20T06:38:01.079Z,100526.33
2018-08-20T06:40:29.982Z,100530.84
2018-08-20T06:42:58.129Z,100537.55
2018-08-20T06:45:26.221Z,100532.25
2018-08-20T06:47:54.389Z,100536.73
2018-08-20T06:50:22.653Z,100535.50
2018-08-20T06:52:50.811Z,100533.91
2018-08-20T06:55:18.901Z,100542.62
2018-08-20T06:57:47.106Z,100549.06
2018-08-20T07:00:15.451Z,100553.30
2018-08-20T07:02:43.542Z,100549.91
2018-08-20T07:05:18.365Z,100551.83
2018-08-20T07:07:46.678Z,100555.75
2018-08-20T07:10:14.979Z,100549.88
2018-08-20T07:12:43.236Z,100552.61
2018-08-20T07:15:14.346Z,100552.92
2018-08-20T07:17:42.636Z,100547.23
2018-08-20T07:20:12.954Z,100552.31
2018-08-20T07:22:41.200Z,100552.39
2018-08-20T07:25:09.455Z,100544.57
2018-08-20T07:27:38.000Z,100547.86
2018-08-20T07:30:09.751Z,100542.30
2018-08-20T07:32:37.967Z,100546.83
2018-08-20T07:35:06.577Z,100538.98
2018-08-20T07:37:35.435Z,100541.43
2018-08-20T07:40:05.139Z,100539.99
2018-08-20T07:42:33.448Z,100542.37
2018-08-20T07:45:01.557Z,100542.59
2018-08-20T07:47:29.706Z,100535.58
2018-08-20T07:49:57.909Z,100541.41
2018-08-20T07:52:26.071Z,100536.91
2018-08-20T07:54:54.193Z,100537.34
2018-08-20T07:57:22.364Z,100543.75
2018-08-20T07:59:50.487Z,100546.49
2018-08-20T08:02:18.728Z,100541.95
2018-08-20T08:04:46.925Z,100545.87
2018-08-20T08:07:15.208Z,100542.29
2018-08-20T08:09:43.408Z,100549.53
2018-08-20T08:12:11.584Z,100545.83
2018-08-20T08:14:39.780Z,100547.94
2018-08-20T08:17:08.723Z,100547.02
2018-08-20T08:19:36.937Z,100548.40
2018-08-20T08:22:05.307Z,100553.70
2018-08-20T08:24:33.562Z,100542.39
2018-08-20T08:27:02.707Z,100549.05
2018-08-20T08:29:30.968Z,100547.70
2018-08-20T08:31:59.433Z,100544.67
2018-08-20T08:34:27.656Z,100543.52
2018-08-20T08:36:55.850Z,100539.68
2018-08-20T08:39:24.000Z,100536.30
2018-08-20T08:41:52.216Z,100541.15
2018-08-20T08:44:20.410Z,100544.73
2018-08-20T08:46:48.656Z,100543.02
2018-08-20T08:49:16.938Z,100534.08
2018-08-20T08:51:45.117Z,100538.87
2018-08-20T08:54:13.390Z,100539.70
2018-08-20T08:56:41.631Z,100542.80
2018-08-20T08:59:10.130Z,100542.55
2018-08-20T09:01:38.296Z,100542.52
2018-08-20T09:04:06.869Z,100539.54
2018-08-20T09:06:35.043Z,100546.37
2018-08-20T09:09:03.705Z,100549.48
2018-08-20T09:11:31.915Z,100547.69
2018-08-20T09:14:00.049Z,100543.15
2018-08-20T09:16:28.190Z,100550.58
2018-08-20T09:18:56.275Z,100553.66
2018-08-20T09:21:24.501Z,100549.63
2018-08-20T09:23:52.745Z,100557.14
2018-08-20T09:26:21.139Z,100545.09
2018-08-20T09:28:49.289Z,100543.23
2018-08-20T09:31:17.519Z,100551.38
2018-08-20T09:33:45.730Z,100551.69
2018-08-20T09:36:13.869Z,100545.35
2018-08-20T09:38:41.983Z,100556.93
2018-08-20T09:41:10.230Z,100556.34
2018-08-20T09:43:38.491Z,100552.78
2018-08-20T09:46:06.741Z,100556.22
2018-08-20T09:48:34.976Z,100554.72
2018-08-20T09:51:03.159Z,100557.53
2018-08-20T09:53:31.305Z,100565.80
2018-08-20T09:55:59.605Z,100564.38
2018-08-20T09:58:27.862Z,100563.86
2018-08-20T10:00:56.028Z,100560.37
2018-08-20T10:03:24.219Z,100567.05
2018-08-20T10:05:52.551Z,100569.44
2018-08-20T10:08:20.815Z,100566.97
2018-08-20T10:10:48.944Z,100567.81
2018-08-20T10:13:17.222Z,100568.30
2018-08-20T10:15:45.442Z,100571.05
2018-08-20T10:18:14.338Z,100563.55
2018-08-20T10:20:42.545Z,100567.71
2018-08-20T10:23:10.667Z,100563.52
2018-08-20T10:25:38.782Z,100566.52
2018-08-20T10:28:07.032Z,100567.15
2018-08-20T10:30:35.306Z,100561.05
2018-08-20T10:33:03.456Z,100564.83
2018-08-20T10:35:31.577Z,100560.48
2018-08-20T10:38:00.044Z,100559.67
2018-08-20T10:40:28.248Z,100556.20
2018-08-20T10:42:56.403Z,100557.31
2018-08-20T10:45:30.251Z,100551.12
2018-08-20T10:47:58.423Z,100560.58
2018-08-20T10:50:26.587Z,100558.52
2018-08-20T10:52:54.711Z,100560.12
2018-08-20T10:55:22.879Z,100552.29
2018-08-20T10:57:50.986Z,100553.57
2018-08-20T11:00:19.194Z,100557.45
2018-08-20T11:02:47.272Z,100549.09
2018-08-20T11:05:17.774Z,100550.02
2018-08-20T11:07:46.269Z,100555.34
2018-08-20T11:10:14.581Z,100551.56
2018-08-20T11:12:42.646Z,100551.97
2018-08-20T11:15:11.631Z,100550.67
2018-08-20T11:17:39.875Z,100545.63
2018-08-20T11:20:13.268Z,100550.78
2018-08-20T11:22:41.885Z,100546.47
2018-08-20T11:25:11.017Z,100540.28
2018-08-20T11:27:39.336Z,100541.14
2018-08-20T11:30:09.960Z,100535.30
2018-08-20T11:32:38.227Z,100544.88
2018-08-20T11:35:07.249Z,100537.44
2018-08-20T11:37:35.445Z,100532.50
2018-08-20T11:40:04.380Z,100531.30
2018-08-20T11:42:32.614Z,100521.08
2018-08-20T11:45:00.785Z,100529.35
2018-08-20T11:47:28.977Z,100516.45
2018-08-20T11:49:57.735Z,100527.87
2018-08-20T11:52:25.969Z,100522.20
2018-08-20T11:54:54.138Z,100523.78
2018-08-20T11:57:22.254Z,100522.63
2018-08-20T11:59:50.360Z,100520.67
2018-08-20T12:02:18.677Z,100517.77
2018-08-20T12:04:46.857Z,100515.41
2018-08-20T12:07:15.197Z,100519.95
2018-08-20T12:09:43.389Z,100509.08
2018-08-20T12:12:11.538Z,100515.00
2018-08-20T12:14:40.737Z,100520.86
2018-08-20T12:17:08.930Z,100515.55
2018-08-20T12:19:36.991Z,100520.38
2018-08-20T12:22:05.254Z,100520.37
2018-08-20T12:24:33.532Z,100524.46
2018-08-20T12:27:01.739Z,100526.04
2018-08-20T12:29:29.883Z,100519.73
2018-08-20T12:31:58.140Z,100530.31
2018-08-20T12:34:26.293Z,100526.58
2018-08-20T12:36:54.377Z,100528.66
2018-08-20T12:39:22.658Z,100526.01
2018-08-20T12:41:50.810Z,100530.14
2018-08-20T12:44:18.951Z,100525.52
2018-08-20T12:46:47.161Z,100528.56
2018-08-20T12:49:15.283Z,100533.86
2018-08-20T12:51:43.441Z,100530.38
2018-08-20T12:54:11.568Z,100525.84
2018-08-20T12:56:40.451Z,100524.62
2018-08-20T12:59:08.745Z,100529.02
2018-08-20T13:01:36.935Z,100528.66
2018-08-20T13:04:05.181Z,100532.65
2018-08-20T13:06:33.303Z,100534.51
2018-08-20T13:09:01.543Z,100542.49
2018-08-20T13:11:29.734Z,100538.20
2018-08-20T13:13:57.851Z,100539.58
2018-08-20T13:16:26.119Z,100533.03
2018-08-20T13:18:54.240Z,100542.90
2018-08-20T13:21:22.381Z,100533.17
2018-08-20T13:23:50.526Z,100537.91
2018-08-20T13:26:18.668Z,100531.45
2018-08-20T13:28:49.792Z,100530.54
2018-08-20T13:31:17.952Z,100522.11
2018-08-20T13:33:46.234Z,100534.09
2018-08-20T13:36:14.472Z,100524.11
2018-08-20T13:38:42.694Z,100527.63
2018-08-20T13:41:10.787Z,100524.14
2018-08-20T13:43:39.000Z,100516.55
2018-08-20T13:46:07.236Z,100515.50
2018-08-20T13:48:35.530Z,100524.33
2018-08-20T13:51:03.728Z,100523.17
2018-08-20T13:53:31.930Z,100518.55
2018-08-20T13:56:00.084Z,100522.13
2018-08-20T13:58:28.330Z,100527.00
2018-08-20T14:00:56.581Z,100527.95
2018-08-20T14:03:24.866Z,100521.45
2018-08-20T14:05:52.957Z,100520.62
2018-08-20T14:08:21.335Z,100513.89
2018-08-20T14:10:49.463Z,100508.96
2018-08-20T14:13:17.608Z,100518.31
2018-08-20T14:15:45.957Z,100519.11
2018-08-20T14:18:14.161Z,100520.39
2018-08-20T14:21:25.344Z,100519.17
2018-08-20T14:23:53.590Z,100509.47
2018-08-20T14:26:21.779Z,100503.12
2018-08-20T14:28:50.014Z,100505.33
2018-08-20T14:31:18.305Z,100508.14
2018-08-20T14:33:46.557Z,100510.30
2018-08-20T14:36:14.693Z,100511.49
2018-08-20T14:38:42.879Z,100514.33
2018-08-20T14:41:11.090Z,100513.11
2018-08-20T14:43:40.063Z,100516.38
2018-08-20T14:46:13.967Z,100511.30
2018-08-20T14:48:42.111Z,100521.37
2018-08-20T14:51:10.251Z,100522.34
2018-08-20T14:53:38.417Z,100525.58
2018-08-20T14:56:06.545Z,100518.59
2018-08-20T14:58:34.785Z,100516.62
2018-08-20T15:01:02.957Z,100527.17
2018-08-20T15:03:31.473Z,100525.13
2018-08-20T15:05:59.641Z,100523.30
2018-08-20T15:08:27.755Z,100524.14
2018-08-20T15:10:55.901Z,100526.34
2018-08-20T15:13:24.017Z,100524.32
2018-08-20T15:15:52.162Z,100531.52
2018-08-20T15:18:20.392Z,100527.81
2018-08-20T15:20:48.597Z,100527.46
2018-08-20T15:23:16.751Z,100525.84
2018-08-20T15:25:44.837Z,100520.47
2018-08-20T15:28:12.928Z,100521.37
2018-08-20T15:30:41.058Z,100510.84
2018-08-20T15:33:09.208Z,100516.41
2018-08-20T15:35:37.448Z,100514.64
2018-08-20T15:38:05.621Z,100513.18
2018-08-20T15:40:33.704Z,100515.89
2018-08-20T15:43:01.791Z,100521.44
2018-08-20T15:45:29.934Z,100522.02
2018-08-20T15:47:58.074Z,100517.16
2018-08-20T15:50:26.225Z,100515.41
2018-08-20T15:52:54.703Z,100508.02
2018-08-20T15:55:22.786Z,100512.01
2018-08-20T15:57:50.913Z,100523.09
2018-08-20T16:00:19.065Z,100516.66
2018-08-20T16:02:47.201Z,100522.38
2018-08-20T16:05:15.470Z,100511.69
2018-08-20T16:07:43.677Z,100509.81
2018-08-20T16:10:12.197Z,100512.36
2018-08-20T16:12:41.172Z,100513.25
2018-08-20T16:15:09.845Z,100514.53
2018-08-20T16:17:38.239Z,100514.60
2018-08-20T16:20:07.093Z,100512.42
2018-08-20T16:22:35.447Z,100523.90
2018-08-20T16:25:04.638Z,100516.62
2018-08-20T16:27:33.025Z,100515.07
2018-08-20T16:30:02.041Z,100510.13
2018-08-20T16:32:30.141Z,100513.20
2018-08-20T16:34:58.336Z,100513.05
2018-08-20T16:37:26.645Z,100513.67
2018-08-20T16:39:54.817Z,100510.84
2018-08-20T16:42:22.920Z,100514.69
2018-08-20T16:44:51.205Z,100515.70
2018-08-20T16:47:19.301Z,100515.97
2018-08-20T16:49:47.517Z,100517.83
2018-08-20T16:52:16.564Z,100514.65
2018-08-20T16:54:44.752Z,100510.71
2018-08-20T16:57:12.951Z,100514.81
2018-08-20T16:59:41.257Z,100514.87
2018-08-20T17:02:14.957Z,100520.88
2018-08-20T17:04:43.236Z,100512.45
2018-08-20T17:07:11.743Z,100522.52
2018-08-20T17:09:40.060Z,100517.66
2018-08-20T17:12:08.911Z,100531.46
2018-08-20T17:14:37.218Z,100527.77
2018-08-20T17:17:05.711Z,100525.90
2018-08-20T17:19:34.238Z,100535.94
2018-08-20T17:22:02.640Z,100529.30
2018-08-20T17:24:36.836Z,100533.92
2018-08-20T17:27:05.197Z,100527.09
2018-08-20T17:29:33.446Z,100531.06
2018-08-20T17:32:03.051Z,100535.28
2018-08-20T17:34:31.267Z,100527.30
2018-08-20T17:36:59.644Z,100536.71
2018-08-20T17:39:27.862Z,100527.19
2018-08-20T17:41:56.688Z,100532.45
2018-08-20T17:44:24.885Z,100533.34
2018-08-20T17:46:53.056Z,100533.58
2018-08-20T17:49:26.985Z,100532.58
2018-08-20T17:51:55.132Z,100527.19
2018-08-20T17:54:23.562Z,100535.96
2018-08-20T17:56:51.664Z,100543.30
2018-08-20T17:59:22.510Z,100540.71
2018-08-20T18:01:50.832Z,100543.80
2018-08-20T18:04:19.009Z,100543.24
2018-08-20T18:06:55.330Z,100548.95
2018-08-20T18:09:23.536Z,100542.73
2018-08-20T18:11:52.858Z,100544.06
2018-08-20T18:14:22.202Z,100547.94
2018-08-20T18:16:50.519Z,100554.95
2018-08-20T18:19:18.755Z,100554.48
2018-08-20T18:21:47.275Z,100555.06
2018-08-20T18:24:18.431Z,100559.95
2018-08-20T18:26:48.095Z,100562.18
2018-08-20T18:29:16.676Z,100566.67
2018-08-20T18:31:44.933Z,100564.08
2018-08-20T18:34:13.161Z,100565.80
2018-08-20T18:36:41.425Z,100560.30
2018-08-20T18:39:12.115Z,100565.34
2018-08-20T18:42:15.059Z,100570.75
2018-08-20T18:44:44.195Z,100574.61
2018-08-20T18:47:13.855Z,100577.09
2018-08-20T18:49:50.306Z,100579.67
2018-08-20T18:52:20.341Z,100585.73
2018-08-20T18:54:56.123Z,100586.72
2018-08-20T18:57:27.535Z,100590.65
2018-08-20T18:59:58.027Z,100585.07
2018-08-20T19:02:55.885Z,100591.96
2018-08-20T19:05:24.190Z,100597.05
2018-08-20T19:07:52.470Z,100599.47
2018-08-20T19:10:31.382Z,100605.41
2018-08-20T19:13:00.396Z,100604.52
2018-08-20T19:15:36.484Z,100606.12
2018-08-20T19:18:06.888Z,100599.37
2018-08-20T19:20:35.388Z,100598.16
2018-08-20T19:23:03.626Z,100597.11
2018-08-20T19:25:31.880Z,100604.06
2018-08-20T19:28:05.914Z,100596.31
2018-08-20T19:30:34.178Z,100596.86
2018-08-20T19:33:04.136Z,100595.79
2018-08-20T19:35:32.563Z,100595.33
2018-08-20T19:38:00.909Z,100599.21
2018-08-20T19:40:29.124Z,100594.55
2018-08-20T19:42:57.256Z,100594.50
2018-08-20T19:45:29.913Z,100597.12
2018-08-20T19:47:58.116Z,100594.53
2018-08-20T19:50:26.273Z,100601.20
2018-08-20T19:52:54.585Z,100600.75
2018-08-20T19:55:22.789Z,100597.81
2018-08-20T19:57:51.255Z,100596.48
2018-08-20T20:00:19.465Z,100605.05
2018-08-20T20:02:47.633Z,100606.25
2018-08-20T20:05:15.842Z,100610.61
2018-08-20T20:07:55.685Z,100614.19
2018-08-20T20:10:23.952Z,100612.29
2018-08-20T20:12:54.716Z,100616.27
2018-08-20T20:15:25.799Z,100611.61
2018-08-20T20:17:55.333Z,100607.25
2018-08-20T20:20:24.217Z,100614.25
2018-08-20T20:22:52.815Z,100607.80
2018-08-20T20:25:21.023Z,100608.01
2018-08-20T20:27:50.647Z,100616.64
2018-08-20T20:30:18.805Z,100623.17
2018-08-20T20:32:46.984Z,100622.92
2018-08-20T20:35:15.341Z,100627.17
2018-08-20T20:37:43.499Z,100627.15
2018-08-20T20:40:11.694Z,100629.05
2018-08-20T20:42:40.552Z,100627.88
2018-08-20T20:45:08.889Z,100631.66
2018-08-20T20:47:37.217Z,100629.27
2018-08-20T20:50:05.527Z,100631.72
2018-08-20T20:52:33.683Z,100641.74
2018-08-20T20:55:02.116Z,100637.86
2018-08-20T20:57:30.298Z,100643.87
2018-08-20T20:59:59.316Z,100641.48
2018-08-20T21:02:27.557Z,100633.82
2018-08-20T21:05:00.367Z,100638.31
2018-08-20T21:07:32.724Z,100642.47
2018-08-20T21:10:01.534Z,100642.99
2018-08-20T21:12:30.766Z,100647.48
2018-08-20T21:14:59.028Z,100644.73
2018-08-20T21:17:27.296Z,100643.19
2018-08-20T21:19:55.675Z,100646.54
2018-08-20T21:22:24.022Z,100655.27
2018-08-20T21:24:52.296Z,100658.56
2018-08-20T21:27:27.475Z,100653.61
2018-08-20T21:29:59.364Z,100651.75
2018-08-20T21:32:27.848Z,100655.83
2018-08-20T21:34:56.220Z,100654.98
2018-08-20T21:37:24.460Z,100657.72
2018-08-20T21:39:52.797Z,100664.00
2018-08-20T21:42:33.098Z,100664.36
2018-08-20T21:45:01.431Z,100662.70
2018-08-20T21:47:30.688Z,100666.34
2018-08-20T21:49:58.840Z,100667.19
2018-08-20T21:52:27.010Z,100669.14
2018-08-20T21:54:55.812Z,100669.09
2018-08-20T21:57:24.206Z,100674.90
2018-08-20T22:00:06.828Z,100671.62
2018-08-20T22:02:35.324Z,100672.40
2018-08-20T22:05:05.465Z,100673.34
2018-08-20T22:07:35.712Z,100671.14
2018-08-20T22:10:04.833Z,100676.11
2018-08-20T22:12:32.972Z,100674.25
2018-08-20T22:15:01.177Z,100669.45
2018-08-20T22:17:30.410Z,100674.65
2018-08-20T22:19:59.345Z,100677.59
2018-08-20T22:22:27.874Z,100680.66
2018-08-20T22:24:59.164Z,100676.34
2018-08-20T22:27:28.620Z,100678.66
2018-08-20T22:30:01.489Z,100684.70
2018-08-20T22:32:30.221Z,100685.49
2018-08-20T22:34:58.859Z,100685.48
2018-08-20T22:37:27.157Z,100687.75
2018-08-20T22:40:01.024Z,100687.23
2018-08-20T22:42:45.435Z,100690.03
2018-08-20T22:45:16.117Z,100689.67
2018-08-20T22:47:46.361Z,100697.92
2018-08-20T22:50:14.716Z,100700.09
2018-08-20T22:52:47.853Z,100696.79
2018-08-20T22:55:17.661Z,100698.46
2018-08-20T22:58:05.117Z,100701.16
2018-08-20T23:00:33.632Z,100701.69
2018-08-20T23:03:01.821Z,100706.72
2018-08-20T23:05:31.531Z,100706.48
2018-08-20T23:08:11.570Z,100709.52
2018-08-20T23:10:42.225Z,100710.79
2018-08-20T23:13:10.511Z,100708.25
2018-08-20T23:15:38.879Z,100711.63
2018-08-20T23:18:07.487Z,100713.53
2018-08-20T23:20:35.767Z,100716.50
2018-08-20T23:23:04.175Z,100717.30
2018-08-20T23:25:32.398Z,100715.56
2018-08-20T23:28:00.633Z,100716.17
2018-08-20T23:30:28.804Z,100718.48
2018-08-20T23:32:57.692Z,100722.00
2018-08-20T23:35:25.937Z,100725.50
2018-08-20T23:37:54.186Z,100728.55
2018-08-20T23:40:22.547Z,100726.66
2018-08-20T23:42:50.944Z,100731.64
2018-08-20T23:45:19.164Z,100736.55
2018-08-20T23:47:47.559Z,100733.25
2018-08-20T23:50:15.735Z,100734.09
2018-08-20T23:52:43.878Z,100733.00
2018-08-20T23:55:12.012Z,100738.02
2018-08-20T23:57:40.377Z,100732.53
